Time;durP1;ratioP1;P1;durP2;ratioP2;P2;SDS_P1;SDS_P2;PMS_P1;PMS_P2;Temp;Humidity;BMP_temperature;BMP_pressure;BME280_temperature;BME280_humidity;BME280_pressure;Samples;Min_cycle;Max_cycle;Signal;HPM_P1;HPM_P2
2021/09/24 00:01:26;;;;;;;7.10;3.15;;;;;;;15.99;56.10;100008.75;10397075;28;20085;-63
2021/09/24 00:06:28;;;;;;;6.85;3.33;;;;;;;15.96;56.45;100016.88;10396405;28;20061;-62
2021/09/24 00:11:30;;;;;;;7.30;3.25;;;;;;;15.85;56.51;100009.03;10396693;28;20096;-63
2021/09/24 00:16:32;;;;;;;8.43;3.35;;;;;;;15.77;57.12;100011.44;10396803;28;20065;-63
2021/09/24 00:21:34;;;;;;;8.52;3.58;;;;;;;15.75;57.23;100010.72;10395918;28;20076;-63
2021/09/24 00:26:36;;;;;;;8.60;3.92;;;;;;;15.71;57.62;100018.97;10396120;28;20115;-63
2021/09/24 00:31:38;;;;;;;8.40;4.40;;;;;;;15.58;58.29;100015.63;10396353;28;20053;-63
2021/09/24 00:36:40;;;;;;;10.70;4.32;;;;;;;15.57;58.39;100011.34;10395449;28;20497;-63
2021/09/24 00:41:41;;;;;;;8.48;4.28;;;;;;;15.55;58.66;100013.25;10394892;28;20533;-63
2021/09/24 00:46:43;;;;;;;8.98;3.47;;;;;;;15.52;58.94;100008.22;10395051;28;20088;-63
2021/09/24 00:51:53;;;;;;;12.15;3.90;;;;;;;15.50;58.65;100010.97;10395089;28;20069;-63
2021/09/24 00:56:55;;;;;;;6.85;3.60;;;;;;;15.40;58.81;100008.19;10395082;28;20115;-63
2021/09/24 01:01:57;;;;;;;7.95;4.10;;;;;;;15.39;58.87;100003.03;10394203;28;20068;-63
2021/09/24 01:07:00;;;;;;;8.65;3.85;;;;;;;15.41;59.16;99998.47;10392980;28;20183;-63
2021/09/24 01:12:02;;;;;;;6.97;3.72;;;;;;;15.40;58.96;100002.94;10393726;28;20068;-63
2021/09/24 01:17:05;;;;;;;7.25;4.20;;;;;;;15.38;59.19;100006.63;10393507;28;20057;-63
2021/09/24 01:22:06;;;;;;;9.88;3.78;;;;;;;15.41;58.93;100001.94;10393674;28;20053;-63
2021/09/24 01:27:08;;;;;;;6.38;3.85;;;;;;;15.34;59.32;99999.94;10394406;28;20053;-63
2021/09/24 01:32:10;;;;;;;9.43;3.60;;;;;;;15.31;59.29;100001.00;10393130;28;20064;-63
2021/09/24 01:37:12;;;;;;;5.90;3.75;;;;;;;15.26;59.21;100002.31;10392682;28;20417;-63
2021/09/24 01:42:13;;;;;;;7.10;3.88;;;;;;;15.20;59.43;100000.16;10392999;28;20056;-63
2021/09/24 01:47:15;;;;;;;4.82;3.30;;;;;;;15.10;59.62;99989.47;10393149;28;20053;-63
2021/09/24 01:52:17;;;;;;;9.98;3.60;;;;;;;14.97;60.13;99987.91;10392662;28;20077;-63
2021/09/24 01:57:19;;;;;;;7.38;3.65;;;;;;;14.92;60.17;99984.81;10392530;28;20049;-63
2021/09/24 02:02:21;;;;;;;7.20;3.53;;;;;;;14.89;60.09;99982.41;10392350;28;20147;-63
2021/09/24 02:07:23;;;;;;;6.22;3.63;;;;;;;14.75;60.44;99987.88;10392382;28;20061;-63
2021/09/24 02:12:25;;;;;;;5.20;3.33;;;;;;;14.79;60.21;99984.06;10392274;28;20069;-63
2021/09/24 02:17:27;;;;;;;7.43;3.60;;;;;;;14.76;60.14;99985.13;10391907;28;20061;-63
2021/09/24 02:22:29;;;;;;;7.95;3.92;;;;;;;14.76;60.26;99986.94;10396476;28;20053;-63
2021/09/24 02:27:31;;;;;;;8.05;3.78;;;;;;;14.69;60.40;99983.94;10400372;28;20058;-63
2021/09/24 02:32:32;;;;;;;6.68;3.80;;;;;;;14.65;60.44;99990.38;10400051;28;20116;-63
2021/09/24 02:37:34;;;;;;;6.38;3.50;;;;;;;14.61;60.61;99996.00;10400586;28;20203;-63
2021/09/24 02:42:36;;;;;;;6.63;3.58;;;;;;;14.54;60.73;99998.25;10399754;28;20045;-63
2021/09/24 02:47:38;;;;;;;8.18;4.00;;;;;;;14.46;61.24;99996.16;10399612;28;20053;-63
2021/09/24 02:52:40;;;;;;;7.32;4.07;;;;;;;14.39;61.35;99986.22;10398947;28;20069;-63
2021/09/24 02:57:42;;;;;;;7.90;3.95;;;;;;;14.39;61.03;99988.84;10399459;28;20437;-63
2021/09/24 03:02:43;;;;;;;7.72;4.18;;;;;;;14.41;61.21;99987.75;10398806;28;20143;-63
2021/09/24 03:07:45;;;;;;;11.02;4.20;;;;;;;14.30;61.29;99994.78;10398539;28;20136;-63
2021/09/24 03:12:47;;;;;;;6.82;4.13;;;;;;;14.26;61.43;99983.66;10398609;28;20045;-63
2021/09/24 03:17:49;;;;;;;6.93;4.15;;;;;;;14.24;61.63;99982.91;10398691;28;20061;-63
2021/09/24 03:22:53;;;;;;;8.45;4.25;;;;;;;14.24;61.90;99980.28;10396970;28;20054;-63
2021/09/24 03:27:55;;;;;;;10.00;4.07;;;;;;;14.20;61.85;99981.47;10396771;28;20523;-63
2021/09/24 03:32:56;;;;;;;8.60;4.40;;;;;;;14.25;61.67;99997.72;10397341;28;20502;-63
2021/09/24 03:37:58;;;;;;;8.65;4.07;;;;;;;14.34;61.50;99989.19;10397696;28;20056;-63
2021/09/24 03:43:00;;;;;;;7.28;4.25;;;;;;;14.35;61.54;99990.03;10397388;28;20143;-63
2021/09/24 03:48:03;;;;;;;10.32;4.70;;;;;;;14.31;61.49;99991.16;10397731;28;20087;-63
2021/09/24 03:53:04;;;;;;;10.52;4.82;;;;;;;14.25;61.60;99991.63;10397402;28;20065;-63
2021/09/24 03:58:06;;;;;;;7.18;4.32;;;;;;;14.15;61.98;99996.72;10396996;28;20053;-63
2021/09/24 04:03:08;;;;;;;9.80;4.70;;;;;;;14.06;62.08;99988.69;10396459;28;20100;-63
2021/09/24 04:08:10;;;;;;;7.65;4.50;;;;;;;14.04;62.34;99990.59;10396369;28;20305;-63
2021/09/24 04:13:12;;;;;;;6.85;4.25;;;;;;;14.07;62.14;99996.47;10396727;28;20046;-63
2021/09/24 04:18:14;;;;;;;7.93;4.65;;;;;;;14.11;62.33;100000.53;10396068;28;20160;-63
2021/09/24 04:23:16;;;;;;;6.85;4.53;;;;;;;14.16;62.29;100001.06;10395851;28;20293;-63
2021/09/24 04:28:18;;;;;;;8.75;4.70;;;;;;;14.21;62.03;100011.22;10395290;28;20740;-63
2021/09/24 04:33:20;;;;;;;8.18;4.88;;;;;;;14.31;61.96;100017.47;10395888;28;20143;-64
2021/09/24 04:38:22;;;;;;;6.90;4.70;;;;;;;14.33;61.78;100013.78;10394410;28;20219;-63
2021/09/24 04:43:23;;;;;;;10.77;5.43;;;;;;;14.46;61.53;100006.69;10394370;28;20140;-64
2021/09/24 04:48:25;;;;;;;7.50;4.95;;;;;;;14.59;61.10;100006.63;10394853;28;20081;-64
2021/09/24 04:53:27;;;;;;;9.90;5.43;;;;;;;14.68;60.85;100013.81;10376969;28;20191;-65
2021/09/24 04:58:28;;;;;;;9.32;5.25;;;;;;;14.69;60.98;100012.03;10394761;28;20053;-64
2021/09/24 05:03:30;;;;;;;11.43;5.85;;;;;;;14.73;60.85;100013.50;10398792;28;20591;-64
2021/09/24 05:08:32;;;;;;;7.30;4.82;;;;;;;14.73;61.08;100024.88;10434808;28;20097;-63
2021/09/24 05:13:33;;;;;;;10.50;5.60;;;;;;;14.73;60.82;100021.38;10435087;28;20064;-63
2021/09/24 05:18:38;;;;;;;8.98;5.30;;;;;;;14.83;60.59;100011.84;10400556;28;20143;-64
2021/09/24 05:23:39;;;;;;;9.30;5.00;;;;;;;14.84;60.76;100018.78;10434760;28;20118;-63
2021/09/24 05:28:41;;;;;;;10.63;5.03;;;;;;;14.87;60.71;100023.81;10431963;28;20067;-63
2021/09/24 05:33:43;;;;;;;10.23;5.20;;;;;;;14.93;60.30;100020.72;10394256;28;20060;-64
2021/09/24 05:38:44;;;;;;;9.02;4.97;;;;;;;15.02;60.18;100023.47;10393284;28;20061;-64
2021/09/24 05:43:48;;;;;;;9.48;5.32;;;;;;;15.08;60.19;100022.19;10393084;28;20827;-64
2021/09/24 05:48:50;;;;;;;11.00;5.13;;;;;;;15.05;60.05;100022.41;10392846;28;20053;-64
2021/09/24 05:53:52;;;;;;;9.88;4.85;;;;;;;15.08;60.02;100027.47;10392874;28;20050;-64
2021/09/24 05:58:53;;;;;;;8.05;5.00;;;;;;;15.13;59.85;100025.28;10391196;28;20057;-64
2021/09/24 06:03:55;;;;;;;9.95;4.65;;;;;;;15.28;59.94;100022.34;10391029;28;20049;-64
2021/09/24 06:08:58;;;;;;;10.00;4.80;;;;;;;15.46;59.18;100033.22;10392216;28;20343;-64
2021/09/24 06:14:00;;;;;;;7.05;4.68;;;;;;;15.53;59.06;100023.09;10392702;28;20140;-64
2021/09/24 06:19:02;;;;;;;11.18;5.00;;;;;;;15.52;59.02;100026.66;10392310;28;20068;-64
2021/09/24 06:24:04;;;;;;;10.45;5.03;;;;;;;15.45;59.02;100026.25;10392144;28;20058;-64
2021/09/24 06:29:06;;;;;;;7.95;5.15;;;;;;;15.37;59.10;100028.66;10392629;28;20096;-65
2021/09/24 06:34:07;;;;;;;9.00;4.65;;;;;;;15.45;59.03;100031.53;10392392;28;20057;-63
2021/09/24 06:39:10;;;;;;;9.70;5.07;;;;;;;15.56;58.60;100036.84;10391797;28;20501;-64
2021/09/24 06:44:12;;;;;;;10.00;4.50;;;;;;;15.64;58.90;100030.97;10392132;28;20057;-64
2021/09/24 06:49:14;;;;;;;8.77;4.32;;;;;;;15.88;58.28;100035.13;10392443;28;20060;-64
2021/09/24 06:54:16;;;;;;;8.13;5.00;;;;;;;16.09;57.94;100030.78;10391739;28;20055;-64
2021/09/24 06:59:22;;;;;;;8.40;4.72;;;;;;;16.32;57.24;100028.06;10390715;28;20053;-64
2021/09/24 07:04:24;;;;;;;8.45;4.30;;;;;;;16.63;56.45;100022.78;10392225;28;20468;-64
2021/09/24 07:09:26;;;;;;;7.60;4.72;;;;;;;16.86;56.13;100024.34;10397109;28;20095;-64
2021/09/24 07:14:31;;;;;;;11.38;4.88;;;;;;;17.07;55.46;100020.84;10398856;28;20132;-64
2021/09/24 07:19:33;;;;;;;7.93;4.80;;;;;;;16.94;55.79;100026.34;10398259;28;20080;-64
2021/09/24 07:24:35;;;;;;;9.93;4.90;;;;;;;16.92;55.84;100020.34;10398429;28;20142;-64
2021/09/24 07:29:37;;;;;;;8.57;4.60;;;;;;;17.04;55.75;100021.94;10398360;28;20046;-63
2021/09/24 07:34:40;;;;;;;5.95;4.63;;;;;;;17.23;55.06;100021.22;10398408;28;20055;-64
2021/09/24 07:39:41;;;;;;;8.50;4.93;;;;;;;17.69;54.41;100013.63;10398014;28;20091;-64
2021/09/24 07:44:43;;;;;;;6.68;4.50;;;;;;;18.09;53.50;100017.09;10397745;28;20137;-64
2021/09/24 07:49:47;;;;;;;7.90;4.60;;;;;;;18.44;52.53;100017.41;10397707;28;20053;-64
2021/09/24 07:54:49;;;;;;;9.43;4.20;;;;;;;18.79;51.79;100019.50;10397697;28;20131;-64
2021/09/24 07:59:50;;;;;;;6.30;3.80;;;;;;;19.07;50.95;100009.84;10397315;28;20064;-64
2021/09/24 08:04:52;;;;;;;9.82;4.22;;;;;;;19.27;50.68;100014.97;10397072;28;20316;-63
2021/09/24 08:09:54;;;;;;;8.68;3.72;;;;;;;19.35;50.30;100020.38;10396585;28;20152;-64
2021/09/24 08:14:55;;;;;;;8.15;3.97;;;;;;;19.48;50.23;100015.56;10396861;28;20164;-64
2021/09/24 08:19:58;;;;;;;7.38;3.40;;;;;;;19.71;49.52;100015.16;10395051;28;20060;-64
2021/09/24 08:25:00;;;;;;;6.30;3.42;;;;;;;19.82;49.36;100013.22;10396106;28;20057;-64
2021/09/24 08:30:05;;;;;;;7.90;3.60;;;;;;;20.14;48.80;100018.03;10396050;28;20085;-64
2021/09/24 08:35:10;;;;;;;6.70;3.10;;;;;;;20.37;48.49;100013.09;10394957;28;20060;-64
2021/09/24 08:40:11;;;;;;;6.80;3.20;;;;;;;20.50;47.95;100014.38;10396558;28;20409;-64
2021/09/24 08:45:20;;;;;;;8.95;3.60;;;;;;;20.52;47.89;100016.91;10395642;28;20115;-64
2021/09/24 08:50:23;;;;;;;5.50;2.70;;;;;;;20.66;47.53;100017.22;10395220;28;20064;-64
2021/09/24 08:55:25;;;;;;;10.48;3.50;;;;;;;20.81;47.09;100012.19;10395488;28;20527;-64
2021/09/24 09:00:28;;;;;;;7.40;2.92;;;;;;;21.02;46.75;100018.00;10394769;28;20059;-64
2021/09/24 09:05:35;;;;;;;6.47;2.80;;;;;;;21.16;45.89;100014.75;10394470;28;20220;-64
2021/09/24 09:10:49;;;;;;;6.28;2.65;;;;;;;21.28;46.12;100010.00;10394327;28;20421;-64
2021/09/24 09:16:13;;;;;;;6.95;2.50;;;;;;;21.39;44.43;100007.09;10394348;28;20161;-64
2021/09/24 09:21:20;;;;;;;6.88;2.70;;;;;;;21.45;44.89;100009.13;10393958;28;20458;-64
2021/09/24 09:26:25;;;;;;;5.95;2.65;;;;;;;21.65;44.64;100007.88;10394436;28;20049;-64
2021/09/24 09:31:32;;;;;;;4.85;2.67;;;;;;;21.83;44.05;100005.94;10393497;28;20049;-64
2021/09/24 09:36:37;;;;;;;6.18;2.33;;;;;;;21.94;43.82;100003.00;10393452;28;20064;-64
2021/09/24 09:41:49;;;;;;;6.20;2.58;;;;;;;22.02;43.06;99994.19;10393646;28;20136;-64
2021/09/24 09:46:52;;;;;;;5.15;2.00;;;;;;;22.11;43.50;100006.56;10393365;28;20049;-64
2021/09/24 09:52:12;;;;;;;6.07;2.47;;;;;;;22.36;42.77;100013.59;10393444;28;20780;-64
2021/09/24 09:57:21;;;;;;;7.20;2.03;;;;;;;22.38;43.07;100012.44;10392905;28;20061;-64
2021/09/24 10:02:32;;;;;;;4.80;2.10;;;;;;;22.00;43.63;100022.81;10393048;28;20057;-64
2021/09/24 10:07:38;;;;;;;5.50;2.10;;;;;;;21.89;44.12;100021.28;10392866;28;20140;-64
2021/09/24 10:12:42;;;;;;;5.60;2.10;;;;;;;22.33;43.59;100014.75;10392464;28;20061;-64
2021/09/24 10:17:45;;;;;;;4.47;2.00;;;;;;;22.48;43.53;100005.13;10391349;28;20420;-64
2021/09/24 10:22:48;;;;;;;4.28;2.00;;;;;;;22.68;43.51;100003.78;10392468;28;20171;-63
2021/09/24 10:27:50;;;;;;;5.60;1.77;;;;;;;23.04;42.54;100004.28;10391300;28;20059;-64
2021/09/24 10:33:04;;;;;;;3.42;1.60;;;;;;;23.59;40.72;99993.66;10392364;28;20565;-64
2021/09/24 10:38:09;;;;;;;3.55;1.98;;;;;;;24.09;40.52;99999.41;10392896;28;20062;-64
2021/09/24 10:43:13;;;;;;;6.57;2.00;;;;;;;24.41;39.62;99992.19;10395641;28;20057;-64
2021/09/24 10:48:23;;;;;;;5.30;1.60;;;;;;;24.54;38.17;99979.03;10400403;28;20061;-64
2021/09/24 10:53:47;;;;;;;2.85;1.50;;;;;;;24.27;39.17;99970.56;10399763;28;20494;-64
2021/09/24 10:58:49;;;;;;;3.90;1.58;;;;;;;24.14;39.45;99970.31;10399499;28;20148;-64
2021/09/24 11:04:10;;;;;;;3.40;1.55;;;;;;;24.08;38.43;99968.34;10399502;28;20049;-65
2021/09/24 11:09:17;;;;;;;3.08;1.30;;;;;;;23.61;38.97;99970.28;10399448;28;20054;-64
2021/09/24 11:14:28;;;;;;;3.85;1.63;;;;;;;23.10;39.89;99970.75;10398895;28;20144;-64
2021/09/24 11:19:34;;;;;;;3.72;1.40;;;;;;;22.88;40.62;99963.47;10398868;28;20053;-64
2021/09/24 11:24:39;;;;;;;3.60;1.75;;;;;;;22.96;40.96;99960.78;10399038;28;20108;-64
2021/09/24 11:30:04;;;;;;;3.25;1.40;;;;;;;23.49;39.19;99947.63;10398374;28;20049;-64
2021/09/24 11:35:08;;;;;;;2.00;1.20;;;;;;;24.17;39.02;99937.06;10398283;28;20045;-64
2021/09/24 11:40:11;;;;;;;3.13;1.30;;;;;;;23.96;39.35;99936.88;10397876;28;20089;-64
2021/09/24 11:45:16;;;;;;;2.50;1.60;;;;;;;23.85;39.49;99935.41;10397948;28;20065;-64
2021/09/24 11:50:19;;;;;;;2.17;1.10;;;;;;;23.48;39.19;99943.28;10397711;28;20057;-64
2021/09/24 11:55:29;;;;;;;2.00;1.25;;;;;;;23.03;40.26;99941.25;10397377;28;20093;-64
2021/09/24 12:00:38;;;;;;;3.42;1.33;;;;;;;22.80;40.50;99945.63;10397253;28;20097;-64
2021/09/24 12:05:51;;;;;;;2.33;1.37;;;;;;;23.39;39.73;99934.44;10396875;28;20416;-64
2021/09/24 12:11:17;;;;;;;1.42;1.10;;;;;;;23.85;38.50;99935.41;10397036;28;20294;-64
2021/09/24 12:16:29;;;;;;;6.63;1.20;;;;;;;23.70;38.43;99934.50;10393773;28;20060;-64
2021/09/24 12:21:37;;;;;;;1.27;1.00;;;;;;;23.23;39.26;99923.84;10396495;28;20057;-64
2021/09/24 12:27:03;;;;;;;1.63;1.00;;;;;;;22.94;39.64;99920.13;10396610;28;20061;-64
2021/09/24 12:32:06;;;;;;;2.05;1.20;;;;;;;22.81;40.24;99935.81;10396260;28;20137;-64
2021/09/24 12:37:09;;;;;;;3.53;1.20;;;;;;;22.38;41.35;99936.97;10395920;28;20049;-64
2021/09/24 12:42:13;;;;;;;1.33;1.00;;;;;;;22.10;41.87;99933.81;10395489;28;20057;-64
2021/09/24 12:47:21;;;;;;;3.95;1.30;;;;;;;22.05;42.27;99930.78;10395376;28;20093;-64
2021/09/24 12:52:24;;;;;;;6.65;1.73;;;;;;;22.14;42.48;99918.31;10394475;28;20068;-64
2021/09/24 12:57:27;;;;;;;2.70;1.40;;;;;;;22.35;41.93;99924.81;10395262;28;20049;-64
2021/09/24 13:02:29;;;;;;;3.92;1.65;;;;;;;22.43;41.83;99924.00;10394567;28;20168;-64
2021/09/24 13:07:32;;;;;;;0.85;0.85;;;;;;;22.29;41.00;99922.81;10392516;28;20053;-64
2021/09/24 13:12:36;;;;;;;6.85;1.33;;;;;;;22.55;40.54;99920.00;10394567;28;20076;-64
2021/09/24 13:17:39;;;;;;;1.17;0.90;;;;;;;22.74;39.87;99900.97;10393971;28;20061;-64
2021/09/24 13:22:41;;;;;;;1.73;0.90;;;;;;;22.60;40.13;99905.16;10393823;28;20084;-64
2021/09/24 13:27:43;;;;;;;1.85;1.00;;;;;;;22.58;40.21;99903.66;10393985;28;20063;-64
2021/09/24 13:32:45;;;;;;;3.70;1.20;;;;;;;22.53;40.08;99896.19;10394774;28;20136;-64
2021/09/24 13:37:47;;;;;;;3.30;1.45;;;;;;;22.48;39.16;99909.16;10394148;28;20060;-64
2021/09/24 13:42:48;;;;;;;2.17;1.23;;;;;;;22.43;39.76;99897.34;10393480;28;20050;-64
2021/09/24 13:47:50;;;;;;;2.95;1.20;;;;;;;22.34;39.93;99885.84;10393256;28;20145;-63
2021/09/24 13:52:54;;;;;;;4.55;1.40;;;;;;;22.39;39.91;99890.69;10391570;28;20446;-64
2021/09/24 13:57:55;;;;;;;4.07;1.30;;;;;;;22.47;39.72;99882.69;10391987;28;20148;-64
2021/09/24 14:02:57;;;;;;;3.17;1.25;;;;;;;22.40;40.07;99887.84;10392890;28;20053;-64
2021/09/24 14:08:00;;;;;;;3.75;1.20;;;;;;;22.20;40.27;99867.03;10392563;28;20054;-64
2021/09/24 14:13:02;;;;;;;3.88;1.23;;;;;;;21.98;40.58;99868.53;10392865;28;20150;-64
2021/09/24 14:18:04;;;;;;;2.75;1.35;;;;;;;21.74;40.67;99857.84;10398083;28;20059;-64
2021/09/24 14:23:05;;;;;;;3.30;1.38;;;;;;;21.31;41.83;99861.56;10400901;28;20066;-64
2021/09/24 14:28:07;;;;;;;3.17;1.30;;;;;;;21.24;41.77;99860.53;10400941;28;20061;-64
2021/09/24 14:33:14;;;;;;;1.95;1.38;;;;;;;21.27;41.73;99868.19;10400740;28;20072;-63
2021/09/24 14:38:16;;;;;;;4.40;1.50;;;;;;;21.18;41.88;99865.66;10399159;28;20067;-63
2021/09/24 14:43:17;;;;;;;2.22;1.30;;;;;;;21.45;41.57;99863.63;10400318;28;20049;-64
2021/09/24 14:48:19;;;;;;;2.47;1.40;;;;;;;21.48;41.54;99867.75;10399874;28;20053;-63
2021/09/24 14:53:21;;;;;;;4.47;1.50;;;;;;;21.66;41.43;99850.66;10399583;28;20413;-64
2021/09/24 14:58:23;;;;;;;4.38;1.60;;;;;;;22.27;40.65;99854.72;10399595;28;20406;-64
2021/09/24 15:03:24;;;;;;;5.03;1.73;;;;;;;22.67;40.13;99849.31;10399204;28;20059;-64
2021/09/24 15:08:26;;;;;;;3.67;1.70;;;;;;;22.49;40.04;99849.53;10399465;28;20049;-64
2021/09/24 15:13:28;;;;;;;3.83;2.08;;;;;;;22.14;41.28;99852.56;10398826;28;20564;-64
2021/09/24 15:18:30;;;;;;;7.78;2.05;;;;;;;22.00;41.44;99847.88;10398612;28;20057;-64
2021/09/24 15:23:31;;;;;;;6.45;1.90;;;;;;;21.83;41.85;99840.88;10398931;28;20053;-64
2021/09/24 15:28:33;;;;;;;6.22;1.90;;;;;;;21.83;42.24;99840.88;10397819;28;20061;-64
2021/09/24 15:33:35;;;;;;;4.50;2.10;;;;;;;21.99;41.98;99848.88;10398169;28;20049;-64
2021/09/24 15:38:36;;;;;;;4.82;2.00;;;;;;;21.80;42.37;99846.56;10398625;28;20056;-64
2021/09/24 15:43:38;;;;;;;5.22;1.80;;;;;;;21.57;42.94;99849.00;10397885;28;20053;-64
2021/09/24 15:48:40;;;;;;;5.78;2.00;;;;;;;21.39;43.42;99853.63;10397608;28;20064;-64
2021/09/24 15:53:41;;;;;;;4.70;1.90;;;;;;;21.32;43.46;99847.28;10397392;28;20144;-64
2021/09/24 15:58:43;;;;;;;3.65;1.67;;;;;;;21.39;43.45;99850.13;10396070;28;20064;-64
2021/09/24 16:03:45;;;;;;;3.15;1.70;;;;;;;21.55;43.58;99848.34;10397241;28;20053;-63
2021/09/24 16:08:47;;;;;;;3.72;1.60;;;;;;;21.62;43.21;99845.88;10396519;28;20145;-63
2021/09/24 16:13:48;;;;;;;5.65;1.50;;;;;;;21.30;43.09;99848.41;10396843;28;20509;-63
2021/09/24 16:18:50;;;;;;;3.28;1.73;;;;;;;21.09;43.18;99849.66;10396988;28;20053;-63
2021/09/24 16:23:52;;;;;;;5.05;1.60;;;;;;;20.84;43.79;99855.88;10396317;28;20053;-64
2021/09/24 16:28:59;;;;;;;4.85;1.50;;;;;;;20.79;44.01;99855.50;10396134;28;20045;-64
2021/09/24 16:34:01;;;;;;;3.60;1.60;;;;;;;20.72;44.17;99854.47;10395618;28;20484;-63
2021/09/24 16:39:03;;;;;;;8.00;1.42;;;;;;;20.49;44.52;99863.94;10394650;28;20076;-64
2021/09/24 16:44:06;;;;;;;2.72;1.50;;;;;;;20.42;44.62;99859.41;10395421;28;20480;-63
2021/09/24 16:49:08;;;;;;;2.88;1.50;;;;;;;20.02;44.86;99854.63;10395618;28;20061;-63
2021/09/24 16:54:10;;;;;;;3.58;1.80;;;;;;;19.81;45.39;99859.38;10394861;28;20049;-64
2021/09/24 16:59:12;;;;;;;3.65;1.55;;;;;;;19.69;45.77;99857.94;10395016;28;20053;-63
2021/09/24 17:04:13;;;;;;;3.70;1.63;;;;;;;19.58;46.45;99858.16;10394752;28;20061;-63
2021/09/24 17:09:15;;;;;;;2.60;1.45;;;;;;;19.38;46.89;99865.41;10394048;28;20140;-63
2021/09/24 17:14:17;;;;;;;3.78;1.80;;;;;;;19.24;47.48;99872.06;10394428;28;20053;-63
2021/09/24 17:19:18;;;;;;;3.00;1.60;;;;;;;19.03;48.33;99868.81;10394477;28;20499;-63
2021/09/24 17:24:20;;;;;;;5.05;1.60;;;;;;;18.91;48.88;99877.06;10394318;28;20148;-63
2021/09/24 17:29:22;;;;;;;4.90;1.65;;;;;;;18.78;49.21;99882.69;10393850;28;20064;-63
2021/09/24 17:34:23;;;;;;;5.93;2.00;;;;;;;18.68;49.99;99887.19;10393551;28;20061;-63
2021/09/24 17:39:25;;;;;;;4.55;2.00;;;;;;;18.55;50.18;99895.44;10393457;28;20067;-63
2021/09/24 17:44:27;;;;;;;6.63;2.10;;;;;;;18.49;50.30;99898.66;10393634;28;20142;-63
2021/09/24 17:49:29;;;;;;;3.60;2.00;;;;;;;18.55;50.64;99908.69;10393431;28;20053;-63
2021/09/24 17:54:31;;;;;;;5.18;1.80;;;;;;;18.54;50.84;99912.31;10392590;28;20070;-63
2021/09/24 17:59:33;;;;;;;5.90;2.33;;;;;;;18.59;50.95;99906.59;10392596;28;20083;-63
2021/09/24 18:04:35;;;;;;;4.13;1.90;;;;;;;18.60;50.96;99911.75;10392751;28;20053;-63
2021/09/24 18:09:37;;;;;;;5.57;3.15;;;;;;;18.56;51.42;99913.00;10392324;28;20293;-63
2021/09/24 18:14:38;;;;;;;5.72;2.63;;;;;;;18.53;50.99;99917.75;10392534;28;20096;-63
2021/09/24 18:19:40;;;;;;;7.93;3.50;;;;;;;18.45;51.73;99917.63;10392328;28;20061;-63
2021/09/24 18:24:42;;;;;;;7.78;4.88;;;;;;;18.34;51.66;99920.44;10392275;28;20140;-63
2021/09/24 18:29:44;;;;;;;6.22;3.10;;;;;;;18.17;52.23;99929.91;10390819;28;20302;-63
2021/09/24 18:34:45;;;;;;;5.82;2.53;;;;;;;17.99;52.97;99939.50;10390666;28;20060;-63
2021/09/24 18:39:48;;;;;;;4.80;2.83;;;;;;;17.92;53.34;99935.72;10391916;28;20053;-63
2021/09/24 18:44:50;;;;;;;4.78;2.05;;;;;;;17.89;53.67;99943.97;10391937;28;20053;-63
2021/09/24 18:49:51;;;;;;;3.70;2.10;;;;;;;17.88;53.75;99944.06;10391706;28;20409;-63
2021/09/24 18:54:53;;;;;;;3.65;2.10;;;;;;;17.82;53.74;99945.47;10391670;28;20144;-64
2021/09/24 18:59:55;;;;;;;5.00;2.17;;;;;;;17.81;53.98;99946.44;10391746;28;20064;-63
2021/09/24 19:05:00;;;;;;;6.18;2.67;;;;;;;17.84;54.04;99947.00;10396587;28;20049;-64
2021/09/24 19:10:02;;;;;;;6.13;2.40;;;;;;;17.82;54.13;99946.31;10398705;28;20782;-63
2021/09/24 19:15:05;;;;;;;3.78;2.15;;;;;;;17.69;54.47;99942.22;10397647;28;20355;-64
2021/09/24 19:20:08;;;;;;;6.18;2.50;;;;;;;17.68;54.34;99944.06;10398533;28;20372;-65
2021/09/24 19:25:11;;;;;;;4.50;2.10;;;;;;;17.64;54.78;99949.75;10397212;28;20056;-64
2021/09/24 19:30:13;;;;;;;4.35;2.10;;;;;;;17.54;54.91;99944.44;10398295;28;20058;-64
2021/09/24 19:35:21;;;;;;;5.10;2.30;;;;;;;17.43;54.95;99959.56;10398219;28;20049;-64
2021/09/24 19:40:22;;;;;;;5.38;2.33;;;;;;;17.39;55.24;99963.44;10397818;28;20813;-64
2021/09/24 19:45:24;;;;;;;4.28;2.00;;;;;;;17.39;55.47;99961.66;10396375;28;20418;-64
2021/09/24 19:50:26;;;;;;;6.40;2.17;;;;;;;17.45;55.46;99966.41;10396450;28;20060;-63
2021/09/24 19:55:27;;;;;;;3.67;2.17;;;;;;;17.39;55.78;99966.09;10397293;28;20061;-62
2021/09/24 20:00:30;;;;;;;4.07;2.00;;;;;;;17.21;55.89;99959.72;10396044;28;20057;-63
2021/09/24 20:05:32;;;;;;;3.28;1.83;;;;;;;17.09;56.25;99959.00;10395799;28;20488;-63
2021/09/24 20:10:34;;;;;;;4.25;2.10;;;;;;;16.94;56.70;99952.38;10396482;28;20091;-63
2021/09/24 20:15:36;;;;;;;3.47;1.88;;;;;;;16.84;56.90;99948.84;10396533;28;20057;-63
2021/09/24 20:20:38;;;;;;;3.03;1.75;;;;;;;16.79;57.04;99956.34;10396419;28;20395;-63
2021/09/24 20:25:40;;;;;;;3.63;2.00;;;;;;;16.68;57.32;99951.13;10396835;28;20502;-63
2021/09/24 20:30:42;;;;;;;3.55;1.98;;;;;;;16.56;57.46;99960.06;10396042;28;20057;-63
2021/09/24 20:35:44;;;;;;;4.72;1.90;;;;;;;16.42;57.76;99958.56;10395905;28;20663;-63
2021/09/24 20:40:51;;;;;;;6.18;2.22;;;;;;;16.32;57.94;99962.09;10395149;28;20429;-63
2021/09/24 20:45:52;;;;;;;3.75;1.95;;;;;;;16.22;58.52;99964.66;10395495;28;20063;-63
2021/09/24 20:50:54;;;;;;;4.55;2.00;;;;;;;16.14;58.46;99954.72;10395750;28;20061;-63
2021/09/24 20:55:56;;;;;;;5.93;2.05;;;;;;;16.03;58.68;99962.69;10394986;28;20056;-63
2021/09/24 21:01:00;;;;;;;4.05;2.13;;;;;;;15.97;58.64;99967.63;10394590;28;20395;-63
2021/09/24 21:06:02;;;;;;;4.13;2.40;;;;;;;15.90;59.01;99959.34;10393469;28;20143;-63
2021/09/24 21:11:04;;;;;;;5.05;2.30;;;;;;;15.85;59.33;99971.25;10392868;28;20476;-63
2021/09/24 21:16:06;;;;;;;4.05;2.20;;;;;;;15.77;59.42;99968.41;10392821;28;20068;-63
2021/09/24 21:21:07;;;;;;;5.25;2.05;;;;;;;15.67;59.62;99960.41;10392133;28;20820;-63
2021/09/24 21:26:10;;;;;;;3.90;2.60;;;;;;;15.59;59.57;99964.59;10391672;28;20067;-63
2021/09/24 21:31:11;;;;;;;3.65;2.10;;;;;;;15.55;59.99;99963.16;10391931;28;20045;-63
2021/09/24 21:36:13;;;;;;;3.42;1.80;;;;;;;15.53;60.07;99954.53;10391792;28;20501;-63
2021/09/24 21:41:15;;;;;;;3.47;1.83;;;;;;;15.49;60.01;99961.00;10391814;28;20061;-63
2021/09/24 21:46:18;;;;;;;6.78;2.03;;;;;;;15.48;59.92;99967.19;10391589;28;20060;-63
2021/09/24 21:51:20;;;;;;;3.10;1.63;;;;;;;15.39;60.26;99969.59;10391523;28;20057;-63
2021/09/24 21:56:21;;;;;;;3.90;1.70;;;;;;;15.23;60.49;99974.41;10391563;28;20137;-63
2021/09/24 22:01:23;;;;;;;3.22;1.90;;;;;;;15.24;60.62;99969.97;10389807;28;20068;-63
2021/09/24 22:06:25;;;;;;;3.00;1.80;;;;;;;15.25;60.17;99966.38;10389896;28;20053;-63
2021/09/24 22:11:41;;;;;;;3.10;1.75;;;;;;;15.21;60.36;99975.47;10469634;28;20628;-63
2021/09/24 22:16:43;;;;;;;2.55;1.70;;;;;;;15.16;60.36;99975.84;10469662;28;20712;-63
2021/09/24 22:21:45;;;;;;;2.85;1.73;;;;;;;15.12;60.34;99981.47;10469308;28;20098;-63
2021/09/24 22:26:47;;;;;;;5.68;2.72;;;;;;;15.17;60.19;99980.16;10484678;28;20065;-63
2021/09/24 22:31:48;;;;;;;4.80;2.90;;;;;;;15.02;60.07;99976.06;10467666;28;20531;-63
2021/09/24 22:36:50;;;;;;;5.55;2.60;;;;;;;14.87;60.57;99979.91;10468599;28;20049;-63
2021/09/24 22:41:52;;;;;;;3.65;2.40;;;;;;;14.77;60.87;99976.28;10468885;28;20047;-63
2021/09/24 22:46:54;;;;;;;4.18;2.30;;;;;;;14.66;60.82;99965.72;10468438;28;20051;-63
2021/09/24 22:51:55;;;;;;;5.28;2.63;;;;;;;14.59;60.94;99978.50;10468395;28;20052;-63
2021/09/24 22:57:02;;;;;;;3.33;2.05;;;;;;;14.54;61.03;99972.75;10466804;28;20137;-63
2021/09/24 23:02:04;;;;;;;3.88;1.90;;;;;;;14.51;61.29;99970.34;10467848;28;20365;-63
2021/09/24 23:07:06;;;;;;;4.22;2.10;;;;;;;14.52;61.28;99974.66;10467478;28;20048;-63
2021/09/24 23:12:08;;;;;;;4.35;2.17;;;;;;;14.47;61.01;99971.50;10467539;28;20052;-63
2021/09/24 23:17:10;;;;;;;2.88;1.98;;;;;;;14.31;61.58;99972.75;10467698;28;20052;-63
2021/09/24 23:22:12;;;;;;;3.65;2.00;;;;;;;14.30;61.61;99973.72;10444636;28;20048;-65